Kelly, Wyoming
Current Conditions -  °F | °C
As of 5:55 AM on Wednesday 26 Nov 2014 (Local Time) from KJAC Reporting Station
Overcast Overcast  
Wind Chill: 31°   Ceiling: 5000
Heat Index: 39°   Visibility: 10mi
Dew Point: 32°   Wind: 14mph
Humidity: 75%   Direction: 230°SW
Pressure: 30.15"   Gusts: NA
Location:  43.62°N, 110.62°W
Report Text: KJAC 261255Z AUTO 23012KT 10SM FEW035 BKN050 OVC065 04/00 A3015 RMK AO1
Loading
Personal Weather Stations






























Interactive Weather Map New forecast layout! Learn more

10-Day Weather Forecast

Advertisements
Track Severe Weather on mobile